sensor_id;sensor_type;location;lat;lon;timestamp;temperature;humidity
65231;DHT22;51813;40.666;16.602;2023-04-06T00:00:55;16.00;50.10
65231;DHT22;51813;40.666;16.602;2023-04-06T00:03:20;16.10;49.90
65231;DHT22;51813;40.666;16.602;2023-04-06T00:05:47;16.10;49.60
65231;DHT22;51813;40.666;16.602;2023-04-06T00:08:13;16.10;49.60
65231;DHT22;51813;40.666;16.602;2023-04-06T00:10:39;16.10;49.70
65231;DHT22;51813;40.666;16.602;2023-04-06T00:13:06;16.10;49.50
65231;DHT22;51813;40.666;16.602;2023-04-06T00:15:32;16.10;49.70
65231;DHT22;51813;40.666;16.602;2023-04-06T00:17:58;16.10;49.80
65231;DHT22;51813;40.666;16.602;2023-04-06T00:20:23;16.00;50.00
65231;DHT22;51813;40.666;16.602;2023-04-06T00:22:49;16.00;50.10
65231;DHT22;51813;40.666;16.602;2023-04-06T00:25:15;16.10;49.90
65231;DHT22;51813;40.666;16.602;2023-04-06T00:27:42;16.10;49.90
65231;DHT22;51813;40.666;16.602;2023-04-06T00:30:08;16.10;49.80
65231;DHT22;51813;40.666;16.602;2023-04-06T00:32:34;16.00;50.00
65231;DHT22;51813;40.666;16.602;2023-04-06T00:35:02;15.80;50.60
65231;DHT22;51813;40.666;16.602;2023-04-06T00:37:28;15.50;51.60
65231;DHT22;51813;40.666;16.602;2023-04-06T00:39:54;15.50;51.60
65231;DHT22;51813;40.666;16.602;2023-04-06T00:42:21;15.50;51.90
65231;DHT22;51813;40.666;16.602;2023-04-06T00:44:57;15.70;51.30
65231;DHT22;51813;40.666;16.602;2023-04-06T00:47:24;15.80;51.00
65231;DHT22;51813;40.666;16.602;2023-04-06T00:49:51;15.70;51.20
65231;DHT22;51813;40.666;16.602;2023-04-06T00:52:18;15.60;51.80
65231;DHT22;51813;40.666;16.602;2023-04-06T00:54:43;15.70;51.70
65231;DHT22;51813;40.666;16.602;2023-04-06T00:57:11;15.80;51.00
65231;DHT22;51813;40.666;16.602;2023-04-06T00:59:55;15.70;51.30
65231;DHT22;51813;40.666;16.602;2023-04-06T01:02:24;15.60;52.00
65231;DHT22;51813;40.666;16.602;2023-04-06T01:04:52;15.40;52.10
65231;DHT22;51813;40.666;16.602;2023-04-06T01:07:19;15.50;51.60
65231;DHT22;51813;40.666;16.602;2023-04-06T01:09:45;15.40;51.70
65231;DHT22;51813;40.666;16.602;2023-04-06T01:12:10;15.50;52.00
65231;DHT22;51813;40.666;16.602;2023-04-06T01:14:36;15.30;52.20
65231;DHT22;51813;40.666;16.602;2023-04-06T01:17:02;15.30;52.60
65231;DHT22;51813;40.666;16.602;2023-04-06T01:19:28;15.40;52.20
65231;DHT22;51813;40.666;16.602;2023-04-06T01:21:54;15.50;52.00
65231;DHT22;51813;40.666;16.602;2023-04-06T01:24:20;15.50;52.60
65231;DHT22;51813;40.666;16.602;2023-04-06T01:26:47;15.30;52.20
65231;DHT22;51813;40.666;16.602;2023-04-06T01:29:13;15.30;52.20
65231;DHT22;51813;40.666;16.602;2023-04-06T01:31:39;15.30;52.20
65231;DHT22;51813;40.666;16.602;2023-04-06T01:34:05;15.40;52.30
65231;DHT22;51813;40.666;16.602;2023-04-06T01:36:31;15.40;51.80
65231;DHT22;51813;40.666;16.602;2023-04-06T01:38:57;15.40;52.10
65231;DHT22;51813;40.666;16.602;2023-04-06T01:41:23;15.40;51.80
65231;DHT22;51813;40.666;16.602;2023-04-06T01:43:48;15.30;52.10
65231;DHT22;51813;40.666;16.602;2023-04-06T01:46:15;15.40;52.70
65231;DHT22;51813;40.666;16.602;2023-04-06T01:48:41;15.60;52.00
65231;DHT22;51813;40.666;16.602;2023-04-06T01:51:07;15.50;51.10
65231;DHT22;51813;40.666;16.602;2023-04-06T01:53:33;15.30;51.70
65231;DHT22;51813;40.666;16.602;2023-04-06T01:55:58;15.50;52.00
65231;DHT22;51813;40.666;16.602;2023-04-06T01:58:24;15.50;51.20
65231;DHT22;51813;40.666;16.602;2023-04-06T02:00:50;15.50;51.70
65231;DHT22;51813;40.666;16.602;2023-04-06T02:03:16;15.60;51.00
65231;DHT22;51813;40.666;16.602;2023-04-06T02:05:42;15.70;50.40
65231;DHT22;51813;40.666;16.602;2023-04-06T02:08:08;15.80;50.50
65231;DHT22;51813;40.666;16.602;2023-04-06T02:10:34;15.80;50.40
65231;DHT22;51813;40.666;16.602;2023-04-06T02:13:00;15.70;50.20
65231;DHT22;51813;40.666;16.602;2023-04-06T02:15:26;15.60;50.20
65231;DHT22;51813;40.666;16.602;2023-04-06T02:17:53;15.50;50.90
65231;DHT22;51813;40.666;16.602;2023-04-06T02:20:19;15.60;50.80
65231;DHT22;51813;40.666;16.602;2023-04-06T02:22:44;15.50;50.40
65231;DHT22;51813;40.666;16.602;2023-04-06T02:25:10;15.50;50.30
65231;DHT22;51813;40.666;16.602;2023-04-06T02:27:37;15.50;50.70
65231;DHT22;51813;40.666;16.602;2023-04-06T02:30:03;15.50;51.10
65231;DHT22;51813;40.666;16.602;2023-04-06T02:32:29;15.40;50.60
65231;DHT22;51813;40.666;16.602;2023-04-06T02:34:55;15.60;50.50
65231;DHT22;51813;40.666;16.602;2023-04-06T02:37:21;15.40;51.00
65231;DHT22;51813;40.666;16.602;2023-04-06T02:39:49;15.30;50.50
65231;DHT22;51813;40.666;16.602;2023-04-06T02:42:16;15.30;50.50
65231;DHT22;51813;40.666;16.602;2023-04-06T02:44:42;15.40;50.60
65231;DHT22;51813;40.666;16.602;2023-04-06T02:47:08;15.20;51.10
65231;DHT22;51813;40.666;16.602;2023-04-06T02:49:34;15.40;51.00
65231;DHT22;51813;40.666;16.602;2023-04-06T02:52:00;15.60;50.60
65231;DHT22;51813;40.666;16.602;2023-04-06T02:54:25;15.60;50.20
65231;DHT22;51813;40.666;16.602;2023-04-06T02:56:51;15.70;49.70
65231;DHT22;51813;40.666;16.602;2023-04-06T02:59:17;15.70;50.80
65231;DHT22;51813;40.666;16.602;2023-04-06T03:01:42;15.70;49.60
65231;DHT22;51813;40.666;16.602;2023-04-06T03:04:08;15.50;50.30
65231;DHT22;51813;40.666;16.602;2023-04-06T03:06:34;15.40;50.90
65231;DHT22;51813;40.666;16.602;2023-04-06T03:08:59;15.40;50.30
65231;DHT22;51813;40.666;16.602;2023-04-06T03:11:25;15.50;50.60
65231;DHT22;51813;40.666;16.602;2023-04-06T03:13:52;15.60;50.40
65231;DHT22;51813;40.666;16.602;2023-04-06T03:16:18;15.40;51.00
65231;DHT22;51813;40.666;16.602;2023-04-06T03:18:43;15.30;50.50
65231;DHT22;51813;40.666;16.602;2023-04-06T03:21:10;15.30;50.90
65231;DHT22;51813;40.666;16.602;2023-04-06T03:23:36;15.40;50.80
65231;DHT22;51813;40.666;16.602;2023-04-06T03:26:02;15.40;50.50
65231;DHT22;51813;40.666;16.602;2023-04-06T03:28:29;15.30;50.40
65231;DHT22;51813;40.666;16.602;2023-04-06T03:30:55;15.30;50.60
65231;DHT22;51813;40.666;16.602;2023-04-06T03:33:20;15.10;50.60
65231;DHT22;51813;40.666;16.602;2023-04-06T03:35:46;15.10;51.70
65231;DHT22;51813;40.666;16.602;2023-04-06T03:38:12;15.20;51.00
65231;DHT22;51813;40.666;16.602;2023-04-06T03:40:37;15.30;49.90
65231;DHT22;51813;40.666;16.602;2023-04-06T03:43:04;15.30;50.40
65231;DHT22;51813;40.666;16.602;2023-04-06T03:45:30;15.30;49.70
65231;DHT22;51813;40.666;16.602;2023-04-06T03:47:55;15.30;49.90
65231;DHT22;51813;40.666;16.602;2023-04-06T03:50:21;15.30;50.20
65231;DHT22;51813;40.666;16.602;2023-04-06T03:52:47;15.30;50.10
65231;DHT22;51813;40.666;16.602;2023-04-06T03:55:13;15.20;50.40
65231;DHT22;51813;40.666;16.602;2023-04-06T03:57:39;15.30;50.00
65231;DHT22;51813;40.666;16.602;2023-04-06T04:00:05;15.20;49.80
65231;DHT22;51813;40.666;16.602;2023-04-06T04:02:31;15.30;50.20
65231;DHT22;51813;40.666;16.602;2023-04-06T04:04:57;15.30;49.90
65231;DHT22;51813;40.666;16.602;2023-04-06T04:07:22;15.20;49.60
65231;DHT22;51813;40.666;16.602;2023-04-06T04:09:48;15.10;49.80
65231;DHT22;51813;40.666;16.602;2023-04-06T04:12:14;15.20;49.90
65231;DHT22;51813;40.666;16.602;2023-04-06T04:14:40;15.20;49.40
65231;DHT22;51813;40.666;16.602;2023-04-06T04:17:06;15.20;50.30
65231;DHT22;51813;40.666;16.602;2023-04-06T04:19:32;15.20;49.10
65231;DHT22;51813;40.666;16.602;2023-04-06T04:21:57;15.30;48.90
65231;DHT22;51813;40.666;16.602;2023-04-06T04:24:23;15.10;49.40
65231;DHT22;51813;40.666;16.602;2023-04-06T04:26:49;15.20;49.30
65231;DHT22;51813;40.666;16.602;2023-04-06T04:29:15;15.30;49.40
65231;DHT22;51813;40.666;16.602;2023-04-06T04:31:41;15.10;49.40
65231;DHT22;51813;40.666;16.602;2023-04-06T04:34:06;15.30;49.30
65231;DHT22;51813;40.666;16.602;2023-04-06T04:36:32;15.30;48.40
65231;DHT22;51813;40.666;16.602;2023-04-06T04:38:58;15.20;48.70
65231;DHT22;51813;40.666;16.602;2023-04-06T04:41:26;15.20;49.00
65231;DHT22;51813;40.666;16.602;2023-04-06T04:43:52;15.20;48.80
65231;DHT22;51813;40.666;16.602;2023-04-06T04:46:17;15.20;49.20
65231;DHT22;51813;40.666;16.602;2023-04-06T04:48:43;15.20;49.20
65231;DHT22;51813;40.666;16.602;2023-04-06T04:51:09;15.20;48.40
65231;DHT22;51813;40.666;16.602;2023-04-06T04:53:34;15.20;48.80
65231;DHT22;51813;40.666;16.602;2023-04-06T04:56:00;15.10;48.40
65231;DHT22;51813;40.666;16.602;2023-04-06T04:58:26;15.20;48.80
65231;DHT22;51813;40.666;16.602;2023-04-06T05:00:52;15.30;48.30
65231;DHT22;51813;40.666;16.602;2023-04-06T05:03:25;15.30;48.30
65231;DHT22;51813;40.666;16.602;2023-04-06T05:05:51;15.30;48.00
65231;DHT22;51813;40.666;16.602;2023-04-06T05:08:16;15.40;47.50
65231;DHT22;51813;40.666;16.602;2023-04-06T05:10:43;15.40;47.90
65231;DHT22;51813;40.666;16.602;2023-04-06T05:13:09;15.40;47.50
65231;DHT22;51813;40.666;16.602;2023-04-06T05:15:35;15.50;47.20
65231;DHT22;51813;40.666;16.602;2023-04-06T05:18:04;15.30;47.70
65231;DHT22;51813;40.666;16.602;2023-04-06T05:20:29;15.30;47.40
65231;DHT22;51813;40.666;16.602;2023-04-06T05:22:56;15.30;47.40
65231;DHT22;51813;40.666;16.602;2023-04-06T05:25:22;15.30;47.50
65231;DHT22;51813;40.666;16.602;2023-04-06T05:27:48;15.30;47.50
65231;DHT22;51813;40.666;16.602;2023-04-06T05:30:13;15.30;47.20
65231;DHT22;51813;40.666;16.602;2023-04-06T05:32:40;15.20;47.40
65231;DHT22;51813;40.666;16.602;2023-04-06T05:35:06;15.20;47.90
65231;DHT22;51813;40.666;16.602;2023-04-06T05:37:32;15.30;47.60
65231;DHT22;51813;40.666;16.602;2023-04-06T05:39:57;15.20;46.80
65231;DHT22;51813;40.666;16.602;2023-04-06T05:42:23;15.10;48.40
65231;DHT22;51813;40.666;16.602;2023-04-06T05:44:49;15.10;48.10
65231;DHT22;51813;40.666;16.602;2023-04-06T05:47:14;15.10;47.60
65231;DHT22;51813;40.666;16.602;2023-04-06T05:49:42;15.10;47.90
65231;DHT22;51813;40.666;16.602;2023-04-06T05:52:08;15.10;47.90
65231;DHT22;51813;40.666;16.602;2023-04-06T05:54:36;15.20;47.60
65231;DHT22;51813;40.666;16.602;2023-04-06T05:57:02;15.20;47.50
65231;DHT22;51813;40.666;16.602;2023-04-06T05:59:30;15.20;47.80
65231;DHT22;51813;40.666;16.602;2023-04-06T06:01:56;15.30;47.40
65231;DHT22;51813;40.666;16.602;2023-04-06T06:04:22;15.20;47.60
65231;DHT22;51813;40.666;16.602;2023-04-06T06:06:48;15.00;48.10
65231;DHT22;51813;40.666;16.602;2023-04-06T06:09:13;15.10;47.30
65231;DHT22;51813;40.666;16.602;2023-04-06T06:11:40;15.00;48.50
65231;DHT22;51813;40.666;16.602;2023-04-06T06:14:06;15.10;47.70
65231;DHT22;51813;40.666;16.602;2023-04-06T06:16:32;15.10;47.90
65231;DHT22;51813;40.666;16.602;2023-04-06T06:18:58;15.10;48.60
65231;DHT22;51813;40.666;16.602;2023-04-06T06:21:24;15.00;48.40
65231;DHT22;51813;40.666;16.602;2023-04-06T06:23:50;15.00;49.10
65231;DHT22;51813;40.666;16.602;2023-04-06T06:26:16;14.90;48.70
65231;DHT22;51813;40.666;16.602;2023-04-06T06:28:42;14.80;49.10
65231;DHT22;51813;40.666;16.602;2023-04-06T06:31:08;14.90;49.30
65231;DHT22;51813;40.666;16.602;2023-04-06T06:33:33;15.00;48.80
65231;DHT22;51813;40.666;16.602;2023-04-06T06:35:59;15.00;48.80
65231;DHT22;51813;40.666;16.602;2023-04-06T06:38:25;15.00;49.70
65231;DHT22;51813;40.666;16.602;2023-04-06T06:40:51;14.90;49.40
65231;DHT22;51813;40.666;16.602;2023-04-06T06:43:17;15.00;49.10
65231;DHT22;51813;40.666;16.602;2023-04-06T06:45:43;14.90;49.30
65231;DHT22;51813;40.666;16.602;2023-04-06T06:48:09;15.00;49.20
65231;DHT22;51813;40.666;16.602;2023-04-06T06:50:35;15.00;49.00
65231;DHT22;51813;40.666;16.602;2023-04-06T06:53:01;15.10;49.00
65231;DHT22;51813;40.666;16.602;2023-04-06T06:55:26;15.10;48.80
65231;DHT22;51813;40.666;16.602;2023-04-06T06:57:53;15.20;48.50
65231;DHT22;51813;40.666;16.602;2023-04-06T07:00:19;15.20;48.50
65231;DHT22;51813;40.666;16.602;2023-04-06T07:02:47;15.20;48.30
65231;DHT22;51813;40.666;16.602;2023-04-06T07:05:13;15.20;48.30
65231;DHT22;51813;40.666;16.602;2023-04-06T07:07:39;15.20;48.40
65231;DHT22;51813;40.666;16.602;2023-04-06T07:10:05;15.20;48.70
65231;DHT22;51813;40.666;16.602;2023-04-06T07:12:31;15.30;48.50
65231;DHT22;51813;40.666;16.602;2023-04-06T07:14:56;15.30;48.90
65231;DHT22;51813;40.666;16.602;2023-04-06T07:17:22;15.30;48.50
65231;DHT22;51813;40.666;16.602;2023-04-06T07:19:48;15.30;48.20
65231;DHT22;51813;40.666;16.602;2023-04-06T07:22:14;15.30;48.20
65231;DHT22;51813;40.666;16.602;2023-04-06T07:24:40;15.40;48.70
65231;DHT22;51813;40.666;16.602;2023-04-06T07:27:06;15.40;48.50
65231;DHT22;51813;40.666;16.602;2023-04-06T07:29:32;15.30;48.20
65231;DHT22;51813;40.666;16.602;2023-04-06T07:31:58;15.30;49.40
65231;DHT22;51813;40.666;16.602;2023-04-06T07:34:24;15.10;48.80
65231;DHT22;51813;40.666;16.602;2023-04-06T07:36:50;15.10;49.50
65231;DHT22;51813;40.666;16.602;2023-04-06T07:39:15;15.20;49.20
65231;DHT22;51813;40.666;16.602;2023-04-06T07:41:41;15.20;49.00
65231;DHT22;51813;40.666;16.602;2023-04-06T07:44:07;15.30;48.90
65231;DHT22;51813;40.666;16.602;2023-04-06T07:46:32;15.30;48.20
65231;DHT22;51813;40.666;16.602;2023-04-06T07:48:59;15.40;48.10
65231;DHT22;51813;40.666;16.602;2023-04-06T07:51:26;15.40;48.40
65231;DHT22;51813;40.666;16.602;2023-04-06T07:53:52;15.50;48.90
65231;DHT22;51813;40.666;16.602;2023-04-06T07:56:18;15.50;47.90
65231;DHT22;51813;40.666;16.602;2023-04-06T07:58:44;15.60;48.00
65231;DHT22;51813;40.666;16.602;2023-04-06T08:01:10;15.60;48.50
65231;DHT22;51813;40.666;16.602;2023-04-06T08:03:36;15.50;47.70
65231;DHT22;51813;40.666;16.602;2023-04-06T08:06:02;15.50;48.70
65231;DHT22;51813;40.666;16.602;2023-04-06T08:08:28;15.60;48.40
65231;DHT22;51813;40.666;16.602;2023-04-06T08:10:54;15.60;48.80
65231;DHT22;51813;40.666;16.602;2023-04-06T08:13:20;15.60;48.70
65231;DHT22;51813;40.666;16.602;2023-04-06T08:15:46;15.60;49.50
65231;DHT22;51813;40.666;16.602;2023-04-06T08:18:12;15.60;49.20
65231;DHT22;51813;40.666;16.602;2023-04-06T08:20:39;15.70;49.10
65231;DHT22;51813;40.666;16.602;2023-04-06T08:23:05;15.70;49.10
65231;DHT22;51813;40.666;16.602;2023-04-06T08:25:33;15.60;49.70
65231;DHT22;51813;40.666;16.602;2023-04-06T08:27:59;15.70;48.50
65231;DHT22;51813;40.666;16.602;2023-04-06T08:30:25;15.60;48.60
65231;DHT22;51813;40.666;16.602;2023-04-06T08:32:50;15.60;49.10
65231;DHT22;51813;40.666;16.602;2023-04-06T08:35:16;15.50;48.80
65231;DHT22;51813;40.666;16.602;2023-04-06T08:37:42;15.50;49.00
65231;DHT22;51813;40.666;16.602;2023-04-06T08:40:08;15.40;48.30
65231;DHT22;51813;40.666;16.602;2023-04-06T08:42:44;15.50;48.50
65231;DHT22;51813;40.666;16.602;2023-04-06T08:45:10;15.50;48.40
65231;DHT22;51813;40.666;16.602;2023-04-06T08:47:39;15.50;47.80
65231;DHT22;51813;40.666;16.602;2023-04-06T08:50:06;15.50;48.70
65231;DHT22;51813;40.666;16.602;2023-04-06T08:52:33;15.50;47.60
65231;DHT22;51813;40.666;16.602;2023-04-06T08:55:00;15.40;47.50
65231;DHT22;51813;40.666;16.602;2023-04-06T08:57:26;15.50;48.50
65231;DHT22;51813;40.666;16.602;2023-04-06T08:59:52;15.50;47.00
65231;DHT22;51813;40.666;16.602;2023-04-06T09:02:19;15.50;46.80
65231;DHT22;51813;40.666;16.602;2023-04-06T09:04:47;15.40;47.60
65231;DHT22;51813;40.666;16.602;2023-04-06T09:07:14;15.40;47.10
65231;DHT22;51813;40.666;16.602;2023-04-06T09:09:40;15.40;47.90
65231;DHT22;51813;40.666;16.602;2023-04-06T09:12:28;15.40;47.50
65231;DHT22;51813;40.666;16.602;2023-04-06T09:14:55;15.50;48.30
65231;DHT22;51813;40.666;16.602;2023-04-06T09:17:28;15.60;47.90
65231;DHT22;51813;40.666;16.602;2023-04-06T09:19:56;15.60;47.60
65231;DHT22;51813;40.666;16.602;2023-04-06T09:22:22;15.60;47.60
65231;DHT22;51813;40.666;16.602;2023-04-06T09:24:52;15.50;47.40
65231;DHT22;51813;40.666;16.602;2023-04-06T09:27:18;15.50;47.60
65231;DHT22;51813;40.666;16.602;2023-04-06T09:30:09;15.60;48.80
65231;DHT22;51813;40.666;16.602;2023-04-06T09:32:49;15.50;46.80
65231;DHT22;51813;40.666;16.602;2023-04-06T09:35:15;15.50;47.90
65231;DHT22;51813;40.666;16.602;2023-04-06T09:37:45;15.40;47.50
65231;DHT22;51813;40.666;16.602;2023-04-06T09:40:12;15.40;47.80
65231;DHT22;51813;40.666;16.602;2023-04-06T09:42:41;15.50;47.00
65231;DHT22;51813;40.666;16.602;2023-04-06T09:45:07;15.50;47.50
65231;DHT22;51813;40.666;16.602;2023-04-06T09:47:36;15.50;47.00
65231;DHT22;51813;40.666;16.602;2023-04-06T09:50:02;15.40;47.20
65231;DHT22;51813;40.666;16.602;2023-04-06T09:52:40;15.30;47.00
65231;DHT22;51813;40.666;16.602;2023-04-06T09:55:07;15.30;46.70
65231;DHT22;51813;40.666;16.602;2023-04-06T10:00:17;15.40;46.70
65231;DHT22;51813;40.666;16.602;2023-04-06T10:07:54;15.30;46.50
65231;DHT22;51813;40.666;16.602;2023-04-06T10:10:21;15.40;46.10
65231;DHT22;51813;40.666;16.602;2023-04-06T10:12:48;15.30;45.90
65231;DHT22;51813;40.666;16.602;2023-04-06T10:15:14;15.30;46.60
65231;DHT22;51813;40.666;16.602;2023-04-06T10:17:40;15.30;46.00
65231;DHT22;51813;40.666;16.602;2023-04-06T10:20:10;15.30;46.20
65231;DHT22;51813;40.666;16.602;2023-04-06T10:25:06;15.40;46.70
65231;DHT22;51813;40.666;16.602;2023-04-06T10:27:33;15.50;46.10
65231;DHT22;51813;40.666;16.602;2023-04-06T10:30:03;15.60;45.70
65231;DHT22;51813;40.666;16.602;2023-04-06T10:32:33;15.70;45.70
65231;DHT22;51813;40.666;16.602;2023-04-06T10:35:36;15.80;46.00
65231;DHT22;51813;40.666;16.602;2023-04-06T10:38:04;16.00;45.00
65231;DHT22;51813;40.666;16.602;2023-04-06T10:40:31;16.20;44.60
65231;DHT22;51813;40.666;16.602;2023-04-06T10:43:12;16.30;44.40
65231;DHT22;51813;40.666;16.602;2023-04-06T10:45:39;16.50;43.90
65231;DHT22;51813;40.666;16.602;2023-04-06T10:48:17;16.50;44.50
65231;DHT22;51813;40.666;16.602;2023-04-06T10:50:46;16.60;44.00
65231;DHT22;51813;40.666;16.602;2023-04-06T10:53:20;16.60;43.60
65231;DHT22;51813;40.666;16.602;2023-04-06T10:55:46;16.70;42.80
65231;DHT22;51813;40.666;16.602;2023-04-06T10:58:14;16.60;42.80
65231;DHT22;51813;40.666;16.602;2023-04-06T11:00:49;16.70;42.90
65231;DHT22;51813;40.666;16.602;2023-04-06T11:03:16;16.90;42.30
65231;DHT22;51813;40.666;16.602;2023-04-06T11:05:49;16.90;41.70
65231;DHT22;51813;40.666;16.602;2023-04-06T11:08:31;16.90;41.60
65231;DHT22;51813;40.666;16.602;2023-04-06T11:11:07;16.90;41.60
65231;DHT22;51813;40.666;16.602;2023-04-06T11:14:12;17.00;40.80
65231;DHT22;51813;40.666;16.602;2023-04-06T11:16:32;17.10;39.90
65231;DHT22;51813;40.666;16.602;2023-04-06T11:19:00;17.10;38.60
65231;DHT22;51813;40.666;16.602;2023-04-06T11:21:42;17.00;38.60
65231;DHT22;51813;40.666;16.602;2023-04-06T11:24:21;17.00;38.80
65231;DHT22;51813;40.666;16.602;2023-04-06T11:26:57;17.10;38.30
65231;DHT22;51813;40.666;16.602;2023-04-06T11:29:27;17.30;38.30
65231;DHT22;51813;40.666;16.602;2023-04-06T11:32:04;17.50;38.30
65231;DHT22;51813;40.666;16.602;2023-04-06T11:34:32;17.50;37.20
65231;DHT22;51813;40.666;16.602;2023-04-06T11:37:01;17.70;38.90
65231;DHT22;51813;40.666;16.602;2023-04-06T11:39:28;17.90;38.50
65231;DHT22;51813;40.666;16.602;2023-04-06T11:41:58;18.00;38.40
65231;DHT22;51813;40.666;16.602;2023-04-06T11:47:05;17.70;37.60
65231;DHT22;51813;40.666;16.602;2023-04-06T11:49:32;17.50;38.90
65231;DHT22;51813;40.666;16.602;2023-04-06T11:52:00;17.40;39.50
65231;DHT22;51813;40.666;16.602;2023-04-06T11:54:36;17.50;38.00
65231;DHT22;51813;40.666;16.602;2023-04-06T11:57:04;17.40;38.50
65231;DHT22;51813;40.666;16.602;2023-04-06T11:59:33;17.30;38.70
65231;DHT22;51813;40.666;16.602;2023-04-06T12:02:00;17.30;38.20
65231;DHT22;51813;40.666;16.602;2023-04-06T12:04:26;17.30;38.30
65231;DHT22;51813;40.666;16.602;2023-04-06T12:06:52;17.30;38.30
65231;DHT22;51813;40.666;16.602;2023-04-06T12:09:18;17.40;38.60
65231;DHT22;51813;40.666;16.602;2023-04-06T12:11:44;17.40;37.80
65231;DHT22;51813;40.666;16.602;2023-04-06T12:14:11;17.40;38.20
65231;DHT22;51813;40.666;16.602;2023-04-06T12:16:36;17.30;38.00
65231;DHT22;51813;40.666;16.602;2023-04-06T12:19:03;17.40;37.60
65231;DHT22;51813;40.666;16.602;2023-04-06T12:21:29;17.50;36.90
65231;DHT22;51813;40.666;16.602;2023-04-06T12:23:56;17.40;37.40
65231;DHT22;51813;40.666;16.602;2023-04-06T12:26:22;17.40;36.80
65231;DHT22;51813;40.666;16.602;2023-04-06T12:28:48;17.40;37.10
65231;DHT22;51813;40.666;16.602;2023-04-06T12:31:18;17.40;37.00
65231;DHT22;51813;40.666;16.602;2023-04-06T12:33:47;17.40;36.90
65231;DHT22;51813;40.666;16.602;2023-04-06T12:36:18;17.40;37.30
65231;DHT22;51813;40.666;16.602;2023-04-06T12:38:44;17.50;37.70
65231;DHT22;51813;40.666;16.602;2023-04-06T12:41:11;17.50;38.00
65231;DHT22;51813;40.666;16.602;2023-04-06T12:43:38;17.50;38.30
65231;DHT22;51813;40.666;16.602;2023-04-06T12:46:04;17.60;38.40
65231;DHT22;51813;40.666;16.602;2023-04-06T12:48:31;17.40;38.70
65231;DHT22;51813;40.666;16.602;2023-04-06T12:50:58;17.60;38.80
65231;DHT22;51813;40.666;16.602;2023-04-06T12:53:24;17.70;38.70
65231;DHT22;51813;40.666;16.602;2023-04-06T12:55:53;17.60;38.80
65231;DHT22;51813;40.666;16.602;2023-04-06T12:58:19;17.60;39.10
65231;DHT22;51813;40.666;16.602;2023-04-06T13:00:44;17.70;39.20
65231;DHT22;51813;40.666;16.602;2023-04-06T13:03:11;17.70;39.00
65231;DHT22;51813;40.666;16.602;2023-04-06T13:05:43;17.70;39.10
65231;DHT22;51813;40.666;16.602;2023-04-06T13:08:10;17.70;39.80
65231;DHT22;51813;40.666;16.602;2023-04-06T13:10:36;17.70;39.50
65231;DHT22;51813;40.666;16.602;2023-04-06T13:13:01;17.80;39.50
65231;DHT22;51813;40.666;16.602;2023-04-06T13:15:27;17.80;39.30
65231;DHT22;51813;40.666;16.602;2023-04-06T13:17:53;17.80;39.50
65231;DHT22;51813;40.666;16.602;2023-04-06T13:20:18;17.80;39.20
65231;DHT22;51813;40.666;16.602;2023-04-06T13:22:44;17.80;39.80
65231;DHT22;51813;40.666;16.602;2023-04-06T13:25:10;17.70;39.40
65231;DHT22;51813;40.666;16.602;2023-04-06T13:27:36;17.70;39.70
65231;DHT22;51813;40.666;16.602;2023-04-06T13:30:03;17.70;39.70
65231;DHT22;51813;40.666;16.602;2023-04-06T13:32:29;17.80;39.80
65231;DHT22;51813;40.666;16.602;2023-04-06T13:34:56;17.70;40.40
65231;DHT22;51813;40.666;16.602;2023-04-06T13:37:21;17.70;40.20
65231;DHT22;51813;40.666;16.602;2023-04-06T13:39:47;17.90;40.00
65231;DHT22;51813;40.666;16.602;2023-04-06T13:42:13;17.70;40.30
65231;DHT22;51813;40.666;16.602;2023-04-06T13:44:39;17.90;40.10
65231;DHT22;51813;40.666;16.602;2023-04-06T13:47:05;17.90;39.70
65231;DHT22;51813;40.666;16.602;2023-04-06T13:49:31;17.90;39.20
65231;DHT22;51813;40.666;16.602;2023-04-06T13:51:58;18.00;39.10
65231;DHT22;51813;40.666;16.602;2023-04-06T13:54:23;18.00;38.10
65231;DHT22;51813;40.666;16.602;2023-04-06T13:56:51;18.00;38.20
65231;DHT22;51813;40.666;16.602;2023-04-06T13:59:16;18.00;37.20
65231;DHT22;51813;40.666;16.602;2023-04-06T14:01:42;18.00;37.10
65231;DHT22;51813;40.666;16.602;2023-04-06T14:04:08;18.10;37.10
65231;DHT22;51813;40.666;16.602;2023-04-06T14:06:34;18.00;36.70
65231;DHT22;51813;40.666;16.602;2023-04-06T14:08:59;18.00;36.60
65231;DHT22;51813;40.666;16.602;2023-04-06T14:11:25;18.00;36.40
65231;DHT22;51813;40.666;16.602;2023-04-06T14:13:51;17.90;35.80
65231;DHT22;51813;40.666;16.602;2023-04-06T14:16:17;17.90;36.10
65231;DHT22;51813;40.666;16.602;2023-04-06T14:18:45;18.00;35.70
65231;DHT22;51813;40.666;16.602;2023-04-06T14:21:10;17.90;35.40
65231;DHT22;51813;40.666;16.602;2023-04-06T14:23:36;17.90;35.60
65231;DHT22;51813;40.666;16.602;2023-04-06T14:26:06;17.80;36.20
65231;DHT22;51813;40.666;16.602;2023-04-06T14:28:32;17.90;35.80
65231;DHT22;51813;40.666;16.602;2023-04-06T14:31:08;17.90;35.40
65231;DHT22;51813;40.666;16.602;2023-04-06T14:33:34;18.00;35.80
65231;DHT22;51813;40.666;16.602;2023-04-06T14:36:03;18.00;34.90
65231;DHT22;51813;40.666;16.602;2023-04-06T14:38:29;18.00;35.50
65231;DHT22;51813;40.666;16.602;2023-04-06T14:40:55;17.90;34.60
65231;DHT22;51813;40.666;16.602;2023-04-06T14:43:21;17.80;34.90
65231;DHT22;51813;40.666;16.602;2023-04-06T14:45:47;17.70;35.80
65231;DHT22;51813;40.666;16.602;2023-04-06T14:48:13;17.70;35.50
65231;DHT22;51813;40.666;16.602;2023-04-06T14:50:41;17.80;36.00
65231;DHT22;51813;40.666;16.602;2023-04-06T14:53:07;17.80;36.00
65231;DHT22;51813;40.666;16.602;2023-04-06T14:55:32;17.70;35.80
65231;DHT22;51813;40.666;16.602;2023-04-06T14:57:59;17.60;36.30
65231;DHT22;51813;40.666;16.602;2023-04-06T15:00:25;17.50;36.50
65231;DHT22;51813;40.666;16.602;2023-04-06T15:02:50;17.50;36.70
65231;DHT22;51813;40.666;16.602;2023-04-06T15:05:16;17.40;36.80
65231;DHT22;51813;40.666;16.602;2023-04-06T15:07:42;17.40;36.80
65231;DHT22;51813;40.666;16.602;2023-04-06T15:10:08;17.40;37.20
65231;DHT22;51813;40.666;16.602;2023-04-06T15:12:35;17.30;36.70
65231;DHT22;51813;40.666;16.602;2023-04-06T15:15:01;17.40;37.20
65231;DHT22;51813;40.666;16.602;2023-04-06T15:17:27;17.30;37.40
65231;DHT22;51813;40.666;16.602;2023-04-06T15:19:52;17.30;37.20
65231;DHT22;51813;40.666;16.602;2023-04-06T15:22:19;17.30;37.20
65231;DHT22;51813;40.666;16.602;2023-04-06T15:24:44;17.20;37.10
65231;DHT22;51813;40.666;16.602;2023-04-06T15:27:10;17.20;37.30